createdAt,value
2018-03-20T00:01:37.053Z,71.20
2018-03-20T00:04:05.923Z,71.20
2018-03-20T00:06:34.076Z,71.20
2018-03-20T00:09:02.198Z,71.20
2018-03-20T00:11:30.327Z,71.60
2018-03-20T00:13:58.450Z,71.30
2018-03-20T00:16:26.594Z,71.40
2018-03-20T00:18:54.722Z,71.50
2018-03-20T00:21:22.869Z,71.60
2018-03-20T00:23:50.996Z,72.40
2018-03-20T00:26:19.129Z,72.10
2018-03-20T00:28:47.244Z,72.10
2018-03-20T00:31:15.422Z,71.70
2018-03-20T00:33:43.534Z,71.20
2018-03-20T00:36:11.667Z,71.00
2018-03-20T00:38:39.779Z,70.90
2018-03-20T00:41:07.894Z,71.20
2018-03-20T00:43:36.019Z,71.50
2018-03-20T00:46:04.180Z,72.30
2018-03-20T00:48:33.095Z,72.80
2018-03-20T00:51:01.194Z,72.60
2018-03-20T00:53:29.333Z,72.90
2018-03-20T00:55:57.453Z,73.00
2018-03-20T00:58:25.583Z,73.50
2018-03-20T01:00:53.694Z,73.70
2018-03-20T01:03:21.829Z,73.60
2018-03-20T01:05:49.953Z,73.30
2018-03-20T01:08:18.091Z,74.10
2018-03-20T01:10:46.206Z,74.10
2018-03-20T01:13:14.343Z,73.20
2018-03-20T01:15:42.456Z,72.70
2018-03-20T01:18:10.589Z,72.80
2018-03-20T01:20:38.693Z,73.00
2018-03-20T01:23:06.823Z,73.20
2018-03-20T01:25:34.936Z,73.20
2018-03-20T01:28:03.066Z,73.10
2018-03-20T01:30:31.277Z,72.30
2018-03-20T01:32:59.411Z,72.50
2018-03-20T01:35:27.522Z,73.70
2018-03-20T01:37:55.650Z,75.20
2018-03-20T01:40:23.784Z,75.40
2018-03-20T01:42:51.909Z,74.90
2018-03-20T01:45:20.027Z,74.30
2018-03-20T01:47:48.164Z,75.00
2018-03-20T01:50:16.279Z,77.30
2018-03-20T01:52:44.429Z,78.20
2018-03-20T01:55:12.538Z,77.70
2018-03-20T01:57:41.427Z,77.60
2018-03-20T02:00:10.315Z,76.40
2018-03-20T02:02:39.230Z,74.80
2018-03-20T02:05:07.348Z,74.70
2018-03-20T02:07:35.479Z,74.70
2018-03-20T02:10:03.584Z,75.90
2018-03-20T02:12:31.724Z,75.70
2018-03-20T02:14:59.826Z,76.10
2018-03-20T02:17:27.977Z,76.10
2018-03-20T02:19:56.084Z,74.80
2018-03-20T02:22:24.988Z,74.50
2018-03-20T02:24:53.098Z,74.60
2018-03-20T02:27:21.239Z,73.90
2018-03-20T02:29:49.380Z,73.40
2018-03-20T02:32:17.521Z,73.70
2018-03-20T02:34:45.631Z,73.90
2018-03-20T02:37:13.767Z,72.70
2018-03-20T02:39:41.890Z,71.80
2018-03-20T02:42:10.085Z,71.30
2018-03-20T02:44:38.204Z,70.70
2018-03-20T02:47:06.345Z,71.10
2018-03-20T02:49:35.237Z,71.50
2018-03-20T02:52:04.151Z,72.70
2018-03-20T02:54:32.274Z,72.60
2018-03-20T02:57:00.411Z,73.70
2018-03-20T02:59:28.543Z,74.10
2018-03-20T03:01:57.452Z,74.80
2018-03-20T03:04:25.568Z,74.70
2018-03-20T03:06:53.676Z,74.40
2018-03-20T03:09:22.592Z,74.60
2018-03-20T03:11:50.716Z,74.50
2018-03-20T03:14:18.874Z,74.30
2018-03-20T03:16:46.991Z,74.60
2018-03-20T03:19:15.890Z,74.50
2018-03-20T03:21:44.769Z,74.40
2018-03-20T03:24:13.672Z,74.40
2018-03-20T03:26:42.570Z,74.20
2018-03-20T03:29:11.473Z,72.70
2018-03-20T03:31:39.601Z,72.70
2018-03-20T03:34:08.660Z,72.90
2018-03-20T03:36:36.777Z,72.90
2018-03-20T03:39:04.922Z,72.70
2018-03-20T03:41:33.034Z,73.60
2018-03-20T03:44:01.949Z,73.40
2018-03-20T03:46:30.054Z,73.30
2018-03-20T03:48:58.197Z,74.10
2018-03-20T03:51:26.306Z,75.20
2018-03-20T03:53:54.460Z,75.80
2018-03-20T03:56:22.589Z,75.50
2018-03-20T03:58:51.500Z,74.40
2018-03-20T04:01:19.607Z,74.40
2018-03-20T04:03:47.755Z,74.20
2018-03-20T04:06:15.864Z,74.30
2018-03-20T04:08:43.993Z,75.10
2018-03-20T04:11:12.120Z,75.70
2018-03-20T04:13:40.251Z,76.30
2018-03-20T04:16:08.380Z,76.20
2018-03-20T04:18:36.516Z,75.80
2018-03-20T04:21:04.628Z,76.00
2018-03-20T04:23:32.772Z,77.00
2018-03-20T04:26:00.889Z,76.90
2018-03-20T04:30:59.183Z,77.40
2018-03-20T04:33:28.088Z,78.00
2018-03-20T04:35:56.207Z,78.00
2018-03-20T04:38:24.410Z,78.10
2018-03-20T04:40:53.408Z,77.90
2018-03-20T04:43:22.319Z,78.00
2018-03-20T04:45:50.426Z,77.90
2018-03-20T04:48:18.554Z,77.70
2018-03-20T04:50:47.441Z,78.40
2018-03-20T04:53:16.334Z,79.00
2018-03-20T04:55:45.216Z,79.80
2018-03-20T04:58:14.116Z,80.10
2018-03-20T05:00:42.991Z,80.60
2018-03-20T05:03:11.890Z,81.90
2018-03-20T05:05:40.776Z,81.40
2018-03-20T05:08:08.911Z,81.40
2018-03-20T05:10:37.040Z,80.60
2018-03-20T05:13:05.940Z,80.70
2018-03-20T05:15:34.063Z,80.70
2018-03-20T05:18:02.187Z,81.20
2018-03-20T05:20:49.178Z,81.10
2018-03-20T05:23:23.669Z,80.70
2018-03-20T05:25:51.792Z,80.70
2018-03-20T05:28:19.947Z,81.10
2018-03-20T05:30:48.827Z,80.90
2018-03-20T05:33:16.974Z,80.90
2018-03-20T05:35:45.098Z,81.60
2018-03-20T05:38:13.441Z,81.90
2018-03-20T05:40:41.557Z,81.60
2018-03-20T05:43:09.720Z,82.00
2018-03-20T05:45:38.604Z,82.70
2018-03-20T05:48:13.286Z,82.30
2018-03-20T05:50:48.157Z,83.10
2018-03-20T05:53:17.068Z,81.20
2018-03-20T05:55:45.174Z,81.20
2018-03-20T05:58:13.283Z,80.90
2018-03-20T06:00:41.419Z,81.30
2018-03-20T06:03:09.539Z,81.70
2018-03-20T06:05:38.434Z,82.20
2018-03-20T06:08:07.328Z,82.00
2018-03-20T06:10:36.276Z,81.80
2018-03-20T06:13:04.388Z,81.70
2018-03-20T06:15:33.292Z,82.60
2018-03-20T06:18:01.407Z,82.60
2018-03-20T06:20:29.548Z,83.10
2018-03-20T06:22:57.668Z,83.20
2018-03-20T06:25:25.812Z,84.30
2018-03-20T06:27:53.931Z,84.20
2018-03-20T06:30:22.137Z,84.70
2018-03-20T06:32:51.023Z,84.90
2018-03-20T06:35:19.937Z,85.50
2018-03-20T06:37:48.048Z,85.50
2018-03-20T06:40:16.190Z,86.20
2018-03-20T06:42:44.296Z,87.30
2018-03-20T06:45:12.432Z,88.10
2018-03-20T06:47:40.550Z,89.00
2018-03-20T06:50:08.701Z,89.10
2018-03-20T06:52:36.820Z,88.80
2018-03-20T06:55:05.723Z,89.20
2018-03-20T06:57:33.840Z,89.20
2018-03-20T07:00:01.986Z,87.90
2018-03-20T07:02:36.988Z,87.30
2018-03-20T07:05:05.907Z,87.50
2018-03-20T07:07:34.014Z,87.40
2018-03-20T07:10:02.212Z,87.90
2018-03-20T07:12:31.107Z,90.00
2018-03-20T07:14:59.244Z,90.00
2018-03-20T07:17:27.360Z,90.00
2018-03-20T07:19:55.516Z,90.30
2018-03-20T07:22:23.623Z,90.50
2018-03-20T07:24:52.522Z,89.50
2018-03-20T07:27:21.409Z,89.00
2018-03-20T07:29:50.302Z,88.70
2018-03-20T07:32:19.178Z,88.50
2018-03-20T07:34:47.326Z,88.50
2018-03-20T07:37:15.440Z,87.80
2018-03-20T07:39:44.340Z,86.60
2018-03-20T07:42:13.217Z,86.50
2018-03-20T07:44:41.357Z,86.50
2018-03-20T07:47:09.466Z,87.20
2018-03-20T07:49:37.604Z,88.00
2018-03-20T07:52:05.726Z,87.60
2018-03-20T07:54:33.890Z,87.60
2018-03-20T07:57:02.773Z,88.00
2018-03-20T07:59:30.907Z,88.00
2018-03-20T08:01:59.023Z,88.80
2018-03-20T08:04:27.932Z,90.10
2018-03-20T08:06:56.053Z,90.10
2018-03-20T08:09:24.187Z,90.20
2018-03-20T08:11:52.299Z,90.40
2018-03-20T08:14:20.405Z,90.70
2018-03-20T08:16:49.298Z,91.20
2018-03-20T08:19:18.172Z,91.50
2018-03-20T08:21:46.320Z,91.50
2018-03-20T08:24:14.441Z,91.40
2018-03-20T08:26:43.331Z,91.90
2018-03-20T08:29:12.195Z,92.00
2018-03-20T08:31:40.345Z,92.00
2018-03-20T08:34:08.508Z,91.80
2018-03-20T08:36:36.892Z,91.80
2018-03-20T08:39:05.434Z,91.80
2018-03-20T08:41:33.717Z,91.90
2018-03-20T08:44:02.031Z,91.80
2018-03-20T08:46:30.172Z,91.40
2018-03-20T08:48:58.344Z,91.50
2018-03-20T08:51:27.236Z,91.00
2018-03-20T08:53:55.340Z,91.00
2018-03-20T08:56:23.521Z,90.90
2018-03-20T08:58:51.635Z,90.70
2018-03-20T09:01:20.533Z,91.00
2018-03-20T09:03:49.422Z,90.90
2018-03-20T09:06:18.314Z,90.90
2018-03-20T09:08:47.184Z,90.60
2018-03-20T09:11:15.325Z,90.60
2018-03-20T09:13:43.448Z,90.80
2018-03-20T09:16:12.423Z,90.70
2018-03-20T09:18:40.692Z,90.70
2018-03-20T09:21:09.840Z,90.60
2018-03-20T09:23:37.972Z,90.60
2018-03-20T09:26:06.098Z,90.50
2018-03-20T09:28:34.211Z,90.40
2018-03-20T09:31:02.352Z,90.80
2018-03-20T09:33:30.474Z,90.90
2018-03-20T09:35:59.378Z,90.50
2018-03-20T09:38:27.490Z,90.50
2018-03-20T09:40:55.628Z,90.20
2018-03-20T09:43:23.741Z,88.70
2018-03-20T09:45:51.863Z,89.60
2018-03-20T09:48:20.751Z,87.90
2018-03-20T09:50:49.648Z,87.70
2018-03-20T09:53:18.517Z,87.00
2018-03-20T09:55:46.645Z,86.90
2018-03-20T09:58:14.760Z,86.00
2018-03-20T10:00:43.765Z,85.70
2018-03-20T10:03:12.808Z,86.70
2018-03-20T10:05:41.218Z,86.70
2018-03-20T10:08:09.448Z,87.50
2018-03-20T10:10:37.571Z,87.50
2018-03-20T10:13:05.676Z,86.60
2018-03-20T10:15:34.573Z,84.90
2018-03-20T10:18:03.440Z,86.00
2018-03-20T10:20:31.576Z,86.00
2018-03-20T10:22:59.685Z,85.60
2018-03-20T10:25:27.816Z,84.40
2018-03-20T10:27:55.920Z,81.40
2018-03-20T10:30:24.060Z,79.40
2018-03-20T10:32:52.173Z,78.70
2018-03-20T10:35:20.300Z,78.70
2018-03-20T10:37:48.736Z,76.60
2018-03-20T10:40:17.628Z,77.20
2018-03-20T10:42:46.538Z,75.60
2018-03-20T10:45:15.647Z,75.50
2018-03-20T10:47:43.904Z,75.50
2018-03-20T10:50:12.089Z,74.90
2018-03-20T10:52:41.077Z,73.00
2018-03-20T10:55:09.212Z,73.00
2018-03-20T10:57:37.317Z,70.50
2018-03-20T11:00:06.570Z,67.20
2018-03-20T11:02:34.687Z,67.70
2018-03-20T11:05:03.566Z,67.30
2018-03-20T11:07:32.456Z,66.00
2018-03-20T11:10:00.552Z,66.00
2018-03-20T11:12:28.680Z,65.90
2018-03-20T11:14:56.787Z,63.80
2018-03-20T11:17:25.680Z,64.10
2018-03-20T11:19:54.545Z,62.80
2018-03-20T11:22:22.671Z,62.80
2018-03-20T11:24:50.780Z,61.10
2018-03-20T11:27:19.002Z,62.90
2018-03-20T11:29:47.180Z,63.90
2018-03-20T11:32:15.336Z,61.90
2018-03-20T11:34:43.527Z,60.20
2018-03-20T11:37:11.667Z,57.40
2018-03-20T11:39:39.767Z,57.80
2018-03-20T11:42:07.900Z,57.20
2018-03-20T11:44:35.990Z,55.70
2018-03-20T11:47:04.885Z,53.30
2018-03-20T11:49:33.757Z,52.80
2018-03-20T11:52:02.726Z,54.20
2018-03-20T11:54:30.824Z,54.20
2018-03-20T11:56:58.979Z,53.10
2018-03-20T11:59:27.262Z,53.80
2018-03-20T12:01:55.477Z,54.20
2018-03-20T12:04:23.660Z,54.50
2018-03-20T12:06:51.775Z,51.60
2018-03-20T12:09:31.944Z,52.20
2018-03-20T12:12:00.069Z,51.40
2018-03-20T12:14:28.170Z,52.00
2018-03-20T12:16:56.296Z,51.60
2018-03-20T12:19:25.150Z,52.50
2018-03-20T12:21:53.281Z,52.50
2018-03-20T12:24:21.381Z,53.10
2018-03-20T12:26:49.508Z,53.40
2018-03-20T12:29:17.617Z,52.80
2018-03-20T12:31:45.754Z,53.40
2018-03-20T12:34:14.623Z,53.30
2018-03-20T12:36:42.749Z,53.30
2018-03-20T12:39:10.846Z,53.30
2018-03-20T12:41:38.972Z,53.50
2018-03-20T12:44:07.066Z,51.80
2018-03-20T12:46:35.204Z,50.60
2018-03-20T12:49:04.073Z,50.90
2018-03-20T12:51:32.195Z,50.80
2018-03-20T12:54:00.304Z,50.50
2018-03-20T12:56:28.459Z,51.20
2018-03-20T12:58:56.592Z,50.60
2018-03-20T13:01:24.748Z,52.20
2018-03-20T13:03:53.606Z,53.10
2018-03-20T13:06:21.741Z,53.10
2018-03-20T13:08:49.834Z,53.10
2018-03-20T13:11:17.966Z,53.00
2018-03-20T13:13:46.831Z,54.60
2018-03-20T13:16:14.963Z,54.60
2018-03-20T13:18:43.084Z,53.60
2018-03-20T13:21:11.205Z,53.40
2018-03-20T13:23:39.308Z,53.10
2018-03-20T13:26:07.584Z,52.80
2018-03-20T13:28:36.502Z,53.20
2018-03-20T13:31:05.395Z,52.40
2018-03-20T13:33:34.265Z,52.00
2018-03-20T13:36:02.398Z,52.10
2018-03-20T13:38:30.494Z,51.60
2018-03-20T13:40:59.361Z,49.90
2018-03-20T13:43:27.487Z,49.60
2018-03-20T13:45:55.582Z,50.90
2018-03-20T13:48:23.711Z,51.00
2018-03-20T13:50:52.699Z,48.40
2018-03-20T13:53:25.634Z,47.50
2018-03-20T13:55:53.816Z,49.10
2018-03-20T13:58:21.943Z,49.70
2018-03-20T14:00:50.048Z,49.60
2018-03-20T14:03:19.154Z,51.00
2018-03-20T14:05:47.528Z,51.00
2018-03-20T14:08:16.005Z,50.80
2018-03-20T14:10:44.872Z,48.80
2018-03-20T14:13:12.995Z,48.80
2018-03-20T14:15:41.095Z,49.80
2018-03-20T14:18:09.296Z,49.70
2018-03-20T14:20:38.236Z,49.50
2018-03-20T14:23:06.315Z,49.50
2018-03-20T14:25:34.418Z,49.00
2018-03-20T14:28:02.536Z,48.10
2018-03-20T14:30:30.643Z,49.50
2018-03-20T14:32:58.768Z,49.10
2018-03-20T14:35:27.631Z,47.00
2018-03-20T14:37:55.766Z,46.80
2018-03-20T14:40:23.874Z,47.30
2018-03-20T14:42:51.995Z,47.90
2018-03-20T14:45:20.091Z,47.60
2018-03-20T14:47:48.215Z,45.50
2018-03-20T14:50:17.123Z,48.70
2018-03-20T14:52:45.419Z,48.70
2018-03-20T14:55:13.558Z,49.20
2018-03-20T14:57:41.732Z,47.50
2018-03-20T15:00:10.699Z,50.30
2018-03-20T15:02:38.829Z,50.20
2018-03-20T15:05:06.928Z,48.10
2018-03-20T15:07:35.041Z,48.90
2018-03-20T15:10:04.356Z,48.90
2018-03-20T15:12:32.539Z,48.90
2018-03-20T15:15:00.649Z,49.50
2018-03-20T15:17:28.779Z,50.20
2018-03-20T15:19:56.878Z,48.90
2018-03-20T15:22:25.007Z,49.50
2018-03-20T15:24:53.874Z,50.00
2018-03-20T15:27:21.991Z,50.00
2018-03-20T15:29:50.093Z,50.20
2018-03-20T15:32:18.207Z,50.10
2018-03-20T15:34:46.306Z,49.70
2018-03-20T15:37:14.440Z,48.80
2018-03-20T15:39:42.533Z,47.80
2018-03-20T15:42:11.428Z,48.80
2018-03-20T15:44:40.300Z,49.20
2018-03-20T15:47:08.418Z,49.10
2018-03-20T15:49:36.527Z,48.50
2018-03-20T15:52:04.647Z,49.20
2018-03-20T15:54:33.474Z,48.10
2018-03-20T15:57:01.608Z,47.90
2018-03-20T15:59:30.486Z,48.10
2018-03-20T16:02:00.612Z,47.70
2018-03-20T16:04:29.480Z,48.10
2018-03-20T16:06:57.607Z,48.10
2018-03-20T16:09:25.711Z,47.20
2018-03-20T16:11:53.840Z,47.80
2018-03-20T16:14:21.943Z,47.90
2018-03-20T16:16:50.050Z,47.80
2018-03-20T16:19:18.181Z,48.90
2018-03-20T16:21:46.284Z,48.70
2018-03-20T16:24:14.413Z,49.50
2018-03-20T16:26:42.511Z,49.50
2018-03-20T16:29:10.629Z,48.30
2018-03-20T16:31:38.732Z,48.10
2018-03-20T16:34:06.845Z,48.50
2018-03-20T16:36:34.943Z,47.30
2018-03-20T16:39:03.073Z,47.80
2018-03-20T16:41:31.186Z,48.40
2018-03-20T16:43:59.308Z,48.90
2018-03-20T16:46:27.414Z,47.90
2018-03-20T16:48:55.536Z,49.10
2018-03-20T16:51:24.474Z,48.30
2018-03-20T16:53:52.596Z,48.30
2018-03-20T16:56:20.688Z,48.60
2018-03-20T16:58:48.872Z,49.80
2018-03-20T17:01:16.986Z,49.10
2018-03-20T17:03:45.113Z,48.40
2018-03-20T17:06:13.591Z,49.10
2018-03-20T17:08:41.769Z,50.50
2018-03-20T17:11:09.863Z,49.70
2018-03-20T17:13:38.002Z,50.10
2018-03-20T17:16:06.107Z,49.90
2018-03-20T17:18:34.298Z,50.30
2018-03-20T17:21:02.793Z,49.60
2018-03-20T17:23:30.920Z,50.20
2018-03-20T17:25:59.795Z,50.70
2018-03-20T17:28:28.682Z,50.80
2018-03-20T17:30:56.797Z,50.80
2018-03-20T17:33:24.927Z,51.10
2018-03-20T17:35:53.032Z,51.70
2018-03-20T17:38:21.153Z,51.90
2018-03-20T17:40:49.273Z,52.30
2018-03-20T17:43:18.165Z,51.80
2018-03-20T17:45:47.036Z,51.70
2018-03-20T17:48:15.201Z,51.80
2018-03-20T17:50:43.296Z,53.20
2018-03-20T17:53:11.455Z,55.80
2018-03-20T17:55:39.576Z,56.70
2018-03-20T17:58:07.725Z,57.60
2018-03-20T18:00:36.586Z,59.40
2018-03-20T18:03:04.724Z,59.30
2018-03-20T18:05:32.832Z,59.60
2018-03-20T18:08:00.970Z,59.70
2018-03-20T18:10:29.079Z,60.60
2018-03-20T18:12:57.213Z,58.60
2018-03-20T18:15:25.315Z,58.80
2018-03-20T18:17:53.475Z,59.40
2018-03-20T18:20:21.577Z,57.20
2018-03-20T18:22:49.700Z,57.40
2018-03-20T18:25:18.419Z,58.60
2018-03-20T18:27:46.560Z,61.70
2018-03-20T18:30:14.659Z,61.30
2018-03-20T18:32:42.873Z,60.30
2018-03-20T18:35:11.744Z,63.00
2018-03-20T18:37:39.866Z,62.90
2018-03-20T18:40:07.981Z,62.60
2018-03-20T18:42:36.901Z,62.30
2018-03-20T18:45:05.043Z,62.20
2018-03-20T18:47:33.153Z,58.60
2018-03-20T18:50:02.069Z,60.40
2018-03-20T18:52:30.183Z,60.30
2018-03-20T18:54:58.298Z,61.00
2018-03-20T18:57:26.413Z,62.70
2018-03-20T18:59:54.565Z,63.80
2018-03-20T19:02:22.674Z,63.60
2018-03-20T19:04:50.913Z,63.70
2018-03-20T19:07:19.084Z,65.20
2018-03-20T19:09:47.223Z,64.40
2018-03-20T19:12:15.331Z,64.20
2018-03-20T19:14:43.464Z,64.60
2018-03-20T19:17:11.570Z,64.80
2018-03-20T19:19:39.696Z,65.00
2018-03-20T19:22:07.808Z,65.60
2018-03-20T19:24:35.940Z,65.50
2018-03-20T19:27:04.062Z,66.80
2018-03-20T19:29:33.343Z,66.40
2018-03-20T19:32:02.260Z,68.00
2018-03-20T19:34:31.136Z,70.00
2018-03-20T19:36:59.996Z,69.30
2018-03-20T19:39:28.123Z,69.30
2018-03-20T19:41:56.242Z,69.30
2018-03-20T19:44:24.360Z,69.70
2018-03-20T19:46:52.466Z,70.70
2018-03-20T19:49:20.588Z,71.10
2018-03-20T19:51:49.454Z,69.80
2018-03-20T19:54:17.580Z,69.80
2018-03-20T19:56:45.674Z,71.30
2018-03-20T19:59:13.824Z,70.90
2018-03-20T20:01:41.928Z,70.70
2018-03-20T20:04:10.051Z,71.20
2018-03-20T20:06:38.156Z,71.20
2018-03-20T20:09:06.287Z,70.60
2018-03-20T20:11:34.432Z,71.30
2018-03-20T20:14:03.354Z,72.80
2018-03-20T20:16:31.523Z,72.70
2018-03-20T20:19:00.407Z,70.60
2018-03-20T20:21:29.289Z,71.00
2018-03-20T20:23:57.422Z,70.90
2018-03-20T20:26:25.559Z,71.70
2018-03-20T20:28:53.688Z,71.80
2018-03-20T20:31:21.788Z,73.20
2018-03-20T20:33:50.681Z,74.60
2018-03-20T20:36:19.875Z,73.60
2018-03-20T20:38:48.791Z,74.90
2018-03-20T20:41:16.896Z,74.50
2018-03-20T20:43:45.049Z,75.00
2018-03-20T20:46:13.148Z,74.60
2018-03-20T20:48:41.277Z,73.90
2018-03-20T20:51:10.171Z,74.40
2018-03-20T20:53:38.764Z,74.40
2018-03-20T20:56:06.884Z,73.50
2018-03-20T20:58:35.036Z,74.60
2018-03-20T21:01:03.160Z,75.70
2018-03-20T21:03:32.077Z,74.70
2018-03-20T21:06:00.237Z,74.60
2018-03-20T21:08:28.376Z,73.80
2018-03-20T21:10:56.475Z,74.20
2018-03-20T21:13:25.384Z,74.40
2018-03-20T21:15:53.489Z,74.20
2018-03-20T21:18:21.581Z,75.10
2018-03-20T21:20:49.705Z,76.00
2018-03-20T21:23:18.444Z,76.30
2018-03-20T21:25:46.608Z,76.70
2018-03-20T21:28:14.720Z,76.30
2018-03-20T21:30:43.664Z,75.30
2018-03-20T21:33:11.813Z,76.50
2018-03-20T21:35:40.701Z,77.30
2018-03-20T21:38:08.803Z,77.30
2018-03-20T21:40:36.958Z,77.50
2018-03-20T21:43:05.087Z,77.10
2018-03-20T21:45:33.274Z,76.70
2018-03-20T21:48:01.369Z,77.30
2018-03-20T21:50:29.507Z,77.60
2018-03-20T21:52:57.613Z,77.60
2018-03-20T21:55:25.734Z,78.00
2018-03-20T21:57:53.828Z,78.50
2018-03-20T22:00:21.987Z,78.70
2018-03-20T22:02:51.217Z,78.30
2018-03-20T22:05:20.117Z,78.20
2018-03-20T22:07:48.235Z,78.10
2018-03-20T22:10:16.359Z,78.60
2018-03-20T22:12:44.446Z,78.70
2018-03-20T22:15:12.731Z,78.10
2018-03-20T22:17:41.665Z,78.10
2018-03-20T22:20:09.790Z,78.10
2018-03-20T22:22:37.903Z,77.90
2018-03-20T22:25:06.866Z,77.40
2018-03-20T22:27:35.008Z,77.40
2018-03-20T22:30:03.376Z,77.40
2018-03-20T22:32:31.615Z,77.00
2018-03-20T22:35:01.085Z,77.20
2018-03-20T22:37:29.195Z,77.10
2018-03-20T22:39:57.342Z,77.10
2018-03-20T22:42:25.452Z,77.70
2018-03-20T22:44:53.593Z,77.70
2018-03-20T22:47:21.700Z,77.40
2018-03-20T22:49:49.887Z,77.00
2018-03-20T22:52:18.733Z,77.30
2018-03-20T22:54:46.867Z,77.30
2018-03-20T22:57:15.742Z,77.80
2018-03-20T22:59:44.635Z,78.00
2018-03-20T23:02:13.513Z,78.00
2018-03-20T23:04:41.630Z,78.00
2018-03-20T23:07:09.823Z,77.80
2018-03-20T23:09:39.402Z,78.00
2018-03-20T23:12:07.641Z,77.70
2018-03-20T23:14:36.786Z,77.10
2018-03-20T23:17:04.904Z,77.80
2018-03-20T23:19:33.040Z,77.30
2018-03-20T23:22:02.596Z,77.10
2018-03-20T23:24:30.834Z,77.80
2018-03-20T23:26:58.927Z,78.20
2018-03-20T23:29:27.072Z,78.10
2018-03-20T23:31:55.188Z,79.10
2018-03-20T23:34:23.336Z,78.60
2018-03-20T23:36:52.813Z,78.50
2018-03-20T23:39:20.964Z,78.70
2018-03-20T23:41:49.928Z,78.00
2018-03-20T23:44:18.063Z,78.00
2018-03-20T23:46:46.184Z,78.30
2018-03-20T23:49:14.345Z,78.40
2018-03-20T23:51:42.449Z,78.00
2018-03-20T23:54:11.325Z,78.20
2018-03-20T23:56:39.463Z,78.10
2018-03-20T23:59:07.563Z,77.40
